Time;durP1;ratioP1;P1;durP2;ratioP2;P2;SDS_P1;SDS_P2;PMS_P1;PMS_P2;Temp;Humidity;BMP_temperature;BMP_pressure;BME280_temperature;BME280_humidity;BME280_pressure;Samples;Min_cycle;Max_cycle;Signal;HPM_P1;HPM_P2
2021/07/03 00:00:00;;;;;;;14.28;9.95;;;;;;;18.26;94.00;100183.70;2695627;88;21063;-63
2021/07/03 00:04:04;;;;;;;16.27;10.08;;;;;;;18.24;94.00;100187.58;2695427;88;21039;-62
2021/07/03 00:08:07;;;;;;;17.20;12.23;;;;;;;18.22;94.14;100189.61;2694711;88;21161;-63
2021/07/03 00:12:11;;;;;;;14.40;11.73;;;;;;;18.19;94.00;100185.44;2758837;84;21101;-62
2021/07/03 00:16:13;;;;;;;24.98;12.30;;;;;;;18.13;94.17;100188.33;2759024;86;21022;-62
2021/07/03 00:20:19;;;;;;;23.25;13.50;;;;;;;18.09;94.24;100193.75;2759107;84;21645;-62
2021/07/03 00:24:21;;;;;;;23.80;12.93;;;;;;;18.03;94.32;100189.05;2759144;86;21063;-63
2021/07/03 00:28:25;;;;;;;24.12;12.55;;;;;;;17.99;94.37;100193.94;2757754;86;21370;-63
2021/07/03 00:32:29;;;;;;;22.20;12.50;;;;;;;17.95;94.49;100194.47;2749985;84;21042;-63
2021/07/03 00:36:31;;;;;;;22.75;12.00;;;;;;;17.92;94.62;100198.86;2756836;85;21020;-64
2021/07/03 00:40:36;;;;;;;17.12;10.18;;;;;;;17.91;94.59;100197.19;2756273;85;21103;-63
2021/07/03 00:44:39;;;;;;;18.92;11.95;;;;;;;17.91;94.51;100197.19;2711307;87;21087;-63
2021/07/03 00:48:43;;;;;;;22.55;12.65;;;;;;;17.89;94.45;100197.34;2723725;87;21027;-62
2021/07/03 00:52:46;;;;;;;17.77;11.57;;;;;;;17.87;94.57;100206.59;2723455;86;20989;-63
2021/07/03 00:57:01;;;;;;;19.82;11.05;;;;;;;17.85;94.52;100209.48;2702784;88;21103;-63
2021/07/03 01:00:58;;;;;;;19.12;12.53;;;;;;;17.82;94.57;100209.84;2787393;84;21012;-64
2021/07/03 01:05:04;;;;;;;19.98;12.78;;;;;;;17.81;94.46;100210.33;2789835;85;21028;-62
2021/07/03 01:09:07;;;;;;;18.67;12.95;;;;;;;17.79;94.65;100213.70;2774205;85;21332;-63
2021/07/03 01:13:11;;;;;;;17.20;12.60;;;;;;;17.75;94.75;100209.69;2789677;85;21048;-64
2021/07/03 01:17:18;;;;;;;17.37;12.60;;;;;;;17.76;94.88;100211.86;2789840;85;21052;-63
2021/07/03 01:21:23;;;;;;;21.90;14.50;;;;;;;17.77;94.90;100207.66;2789428;84;21116;-62
2021/07/03 01:25:27;;;;;;;14.00;10.43;;;;;;;17.80;94.68;100202.45;2789394;85;21096;-63
2021/07/03 01:29:31;;;;;;;15.20;12.03;;;;;;;17.79;94.81;100206.98;2789548;85;21091;-64
2021/07/03 01:33:35;;;;;;;19.90;12.75;;;;;;;17.80;94.68;100193.03;2789514;85;21014;-62
2021/07/03 01:37:38;;;;;;;16.75;13.10;;;;;;;17.79;94.42;100193.53;2789962;85;21057;-62
2021/07/03 01:41:43;;;;;;;20.15;12.37;;;;;;;17.76;94.38;100204.64;2790578;85;21087;-62
2021/07/03 01:45:46;;;;;;;20.30;14.27;;;;;;;17.67;94.55;100207.02;2790053;85;21114;-62
2021/07/03 01:49:50;;;;;;;19.70;12.00;;;;;;;17.61;94.86;100212.61;2789913;85;20991;-63
2021/07/03 01:53:53;;;;;;;19.30;13.45;;;;;;;17.64;95.15;100210.06;2759013;85;21058;-63
2021/07/03 01:57:56;;;;;;;17.52;12.47;;;;;;;17.63;95.26;100200.32;2763341;84;21086;-63
2021/07/03 02:02:02;;;;;;;18.60;11.65;;;;;;;17.64;95.26;100203.34;2763396;86;21047;-62
2021/07/03 02:06:05;;;;;;;17.95;14.03;;;;;;;17.63;95.27;100203.01;2763023;85;21042;-63
2021/07/03 02:10:10;;;;;;;23.38;13.60;;;;;;;17.62;95.22;100205.37;2761480;86;21051;-63
2021/07/03 02:14:14;;;;;;;15.83;11.73;;;;;;;17.63;94.94;100204.36;2761966;85;21043;-62
2021/07/03 02:18:18;;;;;;;19.10;12.00;;;;;;;17.65;94.69;100204.52;2707725;87;21039;-62
2021/07/03 02:22:21;;;;;;;15.65;12.93;;;;;;;17.63;94.46;100201.66;2707394;87;21134;-63
2021/07/03 02:26:25;;;;;;;17.42;12.47;;;;;;;17.60;94.47;100196.64;2707046;88;20980;-63
2021/07/03 02:30:30;;;;;;;21.57;14.65;;;;;;;17.51;94.39;100202.55;2741912;86;21103;-61
2021/07/03 02:34:35;;;;;;;19.70;14.47;;;;;;;17.51;94.39;100202.55;2707406;88;21015;-63
2021/07/03 02:38:41;;;;;;;17.32;13.30;;;;;;;17.51;94.62;100202.06;2741682;85;21545;-62
2021/07/03 02:42:47;;;;;;;23.50;13.38;;;;;;;17.49;94.48;100204.09;2741836;86;21514;-63
2021/07/03 02:46:50;;;;;;;19.52;14.53;;;;;;;17.43;94.49;100202.59;2707136;87;21046;-63
2021/07/03 02:50:55;;;;;;;27.20;14.33;;;;;;;17.36;94.78;100205.95;2706980;87;21091;-65
2021/07/03 02:54:59;;;;;;;19.02;14.05;;;;;;;17.32;94.87;100200.59;2727659;85;21068;-63
2021/07/03 02:59:04;;;;;;;19.48;14.70;;;;;;;17.29;95.11;100200.94;2727018;86;21092;-62
2021/07/03 03:03:07;;;;;;;19.77;13.13;;;;;;;17.24;95.04;100204.14;2680982;88;21047;-62
2021/07/03 03:07:09;;;;;;;21.70;15.65;;;;;;;17.21;95.24;100197.77;2793984;85;21007;-63
2021/07/03 03:11:13;;;;;;;19.60;14.25;;;;;;;17.23;95.33;100198.43;2793785;85;21055;-64
2021/07/03 03:15:16;;;;;;;24.75;16.48;;;;;;;17.25;95.20;100202.30;2793809;85;21035;-63
2021/07/03 03:19:20;;;;;;;16.70;13.15;;;;;;;17.25;95.31;100199.09;2793912;84;21036;-63
2021/07/03 03:23:23;;;;;;;20.75;15.00;;;;;;;17.27;95.34;100204.31;2793971;85;21084;-62
2021/07/03 03:27:26;;;;;;;23.45;14.50;;;;;;;17.27;95.19;100205.66;2793982;85;21016;-63
2021/07/03 03:31:29;;;;;;;19.07;14.87;;;;;;;17.27;94.97;100205.66;2794178;84;21051;-62
2021/07/03 03:35:32;;;;;;;17.90;13.45;;;;;;;17.27;95.03;100206.48;2794361;84;21042;-63
2021/07/03 03:39:35;;;;;;;20.97;15.20;;;;;;;17.29;95.07;100206.31;2794576;85;21074;-63
2021/07/03 03:43:39;;;;;;;20.60;13.45;;;;;;;17.33;94.87;100194.20;2794111;84;21071;-63
2021/07/03 03:47:43;;;;;;;23.47;16.95;;;;;;;17.39;94.75;100194.02;2794339;85;21098;-63
2021/07/03 03:51:48;;;;;;;25.40;17.23;;;;;;;17.45;94.51;100197.36;2794346;84;21061;-63
2021/07/03 03:55:50;;;;;;;21.30;15.53;;;;;;;17.50;94.30;100197.70;2728637;85;21069;-63
2021/07/03 03:59:54;;;;;;;24.40;14.33;;;;;;;17.46;94.08;100192.83;2724615;86;21053;-63
2021/07/03 04:03:59;;;;;;;26.40;16.57;;;;;;;17.48;94.35;100190.28;2726507;86;21089;-63
2021/07/03 04:08:05;;;;;;;27.80;19.67;;;;;;;17.50;94.43;100189.63;2725655;86;21044;-63
2021/07/03 04:12:11;;;;;;;28.77;19.67;;;;;;;17.54;94.45;100185.57;2684749;88;21576;-63
2021/07/03 04:16:17;;;;;;;26.95;17.05;;;;;;;17.63;94.35;100191.76;2724246;85;21041;-63
2021/07/03 04:20:20;;;;;;;24.82;17.00;;;;;;;17.72;94.23;100185.84;2735498;85;21018;-63
2021/07/03 04:24:23;;;;;;;22.45;15.60;;;;;;;17.77;93.95;100184.80;2742606;86;21079;-62
2021/07/03 04:28:30;;;;;;;24.45;17.35;;;;;;;17.88;93.73;100193.47;2747470;86;21070;-62
2021/07/03 04:32:35;;;;;;;25.15;16.32;;;;;;;17.98;93.63;100190.06;2747479;86;21066;-62
2021/07/03 04:36:40;;;;;;;32.83;15.28;;;;;;;18.11;93.47;100193.06;2747795;86;21039;-62
2021/07/03 04:40:45;;;;;;;24.72;16.82;;;;;;;18.24;92.16;100194.31;2738214;86;21068;-62
2021/07/03 04:44:52;;;;;;;25.37;13.30;;;;;;;18.32;91.84;100196.11;2738658;86;21097;-62
2021/07/03 04:48:56;;;;;;;24.37;18.23;;;;;;;18.43;91.06;100201.59;2732823;86;21045;-63
2021/07/03 04:53:00;;;;;;;21.83;17.53;;;;;;;18.47;91.13;100188.08;2735461;86;21062;-63
2021/07/03 04:57:14;;;;;;;25.92;17.40;;;;;;;18.57;90.68;100186.00;2762627;86;21007;-62
2021/07/03 05:01:17;;;;;;;21.65;16.30;;;;;;;18.67;90.50;100179.86;2755744;86;21546;-62
2021/07/03 05:05:21;;;;;;;24.47;17.70;;;;;;;18.84;90.49;100179.20;2696030;87;21063;-62
2021/07/03 05:09:29;;;;;;;26.23;17.25;;;;;;;19.01;89.34;100183.61;2678031;86;21049;-61
2021/07/03 05:13:34;;;;;;;27.00;15.90;;;;;;;19.13;88.22;100176.23;2695632;88;21022;-62
2021/07/03 05:17:37;;;;;;;18.48;14.98;;;;;;;19.29;88.14;100168.16;2697897;88;21105;-61
2021/07/03 05:21:41;;;;;;;21.70;15.00;;;;;;;19.49;86.51;100169.27;2690825;87;21111;-62
2021/07/03 05:25:45;;;;;;;23.10;15.10;;;;;;;19.70;86.49;100164.95;2641691;89;21034;-62
2021/07/03 05:29:48;;;;;;;24.10;16.07;;;;;;;19.90;84.87;100175.97;2700251;86;21042;-61
2021/07/03 05:33:51;;;;;;;18.55;12.88;;;;;;;20.23;84.82;100163.38;2696330;87;21058;-61
2021/07/03 05:37:55;;;;;;;21.15;16.60;;;;;;;20.59;83.17;100165.67;2696060;88;21078;-62
2021/07/03 05:42:00;;;;;;;21.50;13.58;;;;;;;20.76;81.66;100184.31;2723376;86;21544;-63
2021/07/03 05:46:05;;;;;;;22.73;14.13;;;;;;;20.94;79.91;100188.75;2723551;87;21062;-62
2021/07/03 05:50:14;;;;;;;23.42;13.38;;;;;;;21.00;80.32;100193.89;2696194;88;21083;-62
2021/07/03 05:54:17;;;;;;;21.40;14.50;;;;;;;21.17;78.30;100189.00;2707670;86;21049;-62
2021/07/03 05:58:21;;;;;;;16.32;12.25;;;;;;;21.25;77.54;100195.63;2728359;86;21044;-62
2021/07/03 06:02:25;;;;;;;20.48;13.10;;;;;;;21.57;78.42;100180.28;2682666;88;21017;-64
2021/07/03 06:06:28;;;;;;;18.45;13.35;;;;;;;21.96;76.84;100194.20;2795787;85;21028;-62
2021/07/03 06:10:31;;;;;;;21.00;14.38;;;;;;;22.13;75.81;100178.93;2795439;84;21497;-61
2021/07/03 06:14:33;;;;;;;24.12;13.43;;;;;;;22.35;75.62;100170.95;2795712;84;21020;-61
2021/07/03 06:18:36;;;;;;;19.62;12.93;;;;;;;22.80;75.55;100169.55;2795886;84;21075;-63
2021/07/03 06:22:42;;;;;;;15.63;12.00;;;;;;;23.04;72.55;100188.92;2795708;85;21043;-62
2021/07/03 06:26:46;;;;;;;33.50;15.05;;;;;;;22.77;73.19;100178.08;2796016;84;21046;-63
2021/07/03 06:30:56;;;;;;;20.85;13.32;;;;;;;22.77;73.61;100180.28;2795760;85;21098;-63
2021/07/03 06:35:00;;;;;;;17.70;12.53;;;;;;;22.70;73.78;100182.67;2796114;85;21027;-63
2021/07/03 06:39:03;;;;;;;20.80;12.58;;;;;;;22.75;73.81;100182.87;2796245;85;20995;-62
2021/07/03 06:43:06;;;;;;;17.75;11.90;;;;;;;23.02;73.65;100177.45;2773609;85;21043;-63
2021/07/03 06:47:09;;;;;;;19.23;13.28;;;;;;;23.40;73.79;100184.91;2799109;84;21070;-62
2021/07/03 06:51:11;;;;;;;19.17;11.35;;;;;;;23.74;72.04;100182.88;2799636;85;21513;-62
2021/07/03 06:55:14;;;;;;;20.30;13.53;;;;;;;23.92;71.47;100179.98;2740867;85;21034;-62
2021/07/03 06:59:19;;;;;;;14.80;11.78;;;;;;;23.89;68.79;100183.14;2698229;87;21043;-62
2021/07/03 07:03:22;;;;;;;15.63;11.90;;;;;;;23.85;70.08;100192.77;2725719;87;20987;-62
2021/07/03 07:07:36;;;;;;;16.80;11.70;;;;;;;23.88;70.37;100191.83;2700554;87;21039;-61
2021/07/03 07:11:39;;;;;;;16.00;11.50;;;;;;;23.76;69.72;100191.64;2752141;86;21020;-62
2021/07/03 07:15:42;;;;;;;16.93;12.10;;;;;;;23.82;70.09;100199.45;2728872;86;21038;-63
2021/07/03 07:19:45;;;;;;;18.32;13.70;;;;;;;23.91;70.06;100198.69;2766249;84;21026;-63
2021/07/03 07:23:47;;;;;;;16.57;12.68;;;;;;;24.09;69.88;100186.61;2761169;86;21034;-62
2021/07/03 07:27:50;;;;;;;21.80;13.15;;;;;;;24.39;69.53;100199.60;2741450;86;21035;-62
2021/07/03 07:31:53;;;;;;;11.93;10.58;;;;;;;24.55;67.78;100188.41;2742694;86;21010;-62
2021/07/03 07:35:55;;;;;;;15.45;11.38;;;;;;;24.67;67.92;100190.72;2713707;87;21021;-62
2021/07/03 07:40:10;;;;;;;14.10;11.83;;;;;;;24.83;67.60;100181.19;2715542;87;21089;-62
2021/07/03 07:44:13;;;;;;;15.88;10.48;;;;;;;24.95;67.09;100175.84;2761501;86;20987;-63
2021/07/03 07:48:19;;;;;;;17.50;12.13;;;;;;;25.10;66.81;100185.00;2756694;86;20971;-62
2021/07/03 07:52:21;;;;;;;14.65;10.70;;;;;;;25.03;66.85;100178.81;2699597;87;21039;-62
2021/07/03 07:56:24;;;;;;;12.53;10.03;;;;;;;25.04;65.99;100180.47;2718098;86;21089;-63
2021/07/03 08:00:33;;;;;;;15.85;12.20;;;;;;;24.88;66.70;100185.42;2721467;87;21066;-63
2021/07/03 08:04:36;;;;;;;17.02;11.90;;;;;;;24.70;66.65;100182.63;2726792;85;21058;-62
2021/07/03 08:08:40;;;;;;;13.55;7.65;;;;;;;24.56;67.25;100188.70;2737202;86;21010;-62
2021/07/03 08:12:44;;;;;;;14.43;11.93;;;;;;;24.38;66.89;100193.02;2727253;86;21035;-64
2021/07/03 08:16:47;;;;;;;19.92;11.15;;;;;;;24.14;67.86;100181.03;2760124;86;21059;-62
2021/07/03 08:20:50;;;;;;;16.45;11.25;;;;;;;24.05;68.41;100176.38;2731113;86;21076;-62
2021/07/03 08:24:53;;;;;;;20.30;11.20;;;;;;;23.89;69.65;100170.41;2713023;86;21054;-62
2021/07/03 08:29:04;;;;;;;24.90;12.63;;;;;;;23.74;70.03;100176.09;2688095;88;21072;-62
2021/07/03 08:33:07;;;;;;;12.93;11.25;;;;;;;23.46;70.44;100185.91;2710067;87;20988;-65
2021/07/03 08:37:12;;;;;;;14.43;10.43;;;;;;;23.37;71.52;100181.24;2712806;87;21067;-61
2021/07/03 08:41:15;;;;;;;15.00;11.40;;;;;;;23.42;72.42;100182.81;2742695;86;21010;-63
2021/07/03 08:45:18;;;;;;;12.07;9.55;;;;;;;23.69;70.09;100174.56;2751470;85;21003;-62
2021/07/03 08:49:22;;;;;;;17.25;9.98;;;;;;;23.61;69.84;100179.70;2736919;86;20983;-62
2021/07/03 08:53:25;;;;;;;12.93;10.65;;;;;;;23.41;70.56;100174.36;2739538;86;20999;-62
2021/07/03 08:58:12;;;;;;;10.95;8.30;;;;;;;23.44;71.97;100179.87;2727257;86;21087;-62
2021/07/03 09:02:15;;;;;;;26.25;8.28;;;;;;;23.62;70.60;100185.98;2740784;86;21016;-64
2021/07/03 09:06:31;;;;;;;13.72;8.63;;;;;;;23.91;68.16;100174.24;2737805;86;21043;-62
2021/07/03 09:10:39;;;;;;;10.75;8.35;;;;;;;24.31;68.30;100169.95;2701537;88;21533;-63
2021/07/03 09:14:42;;;;;;;12.05;9.10;;;;;;;24.94;67.61;100167.38;2731489;87;21068;-62
2021/07/03 09:18:56;;;;;;;11.38;9.23;;;;;;;25.19;66.62;100168.70;2796731;85;21071;-62
2021/07/03 09:23:11;;;;;;;12.30;8.05;;;;;;;25.25;64.83;100166.94;2800197;85;21083;-63
2021/07/03 09:27:12;;;;;;;13.13;9.68;;;;;;;25.56;64.87;100160.27;2798641;85;21015;-63
2021/07/03 09:31:19;;;;;;;10.28;9.00;;;;;;;25.46;62.80;100157.50;2800409;85;21658;-66
2021/07/03 09:35:22;;;;;;;9.88;8.78;;;;;;;25.51;63.27;100159.03;2798003;84;21024;-66
2021/07/03 09:39:26;;;;;;;18.67;8.68;;;;;;;25.58;63.04;100147.24;2798222;84;21007;-65
2021/07/03 09:43:29;;;;;;;11.33;8.68;;;;;;;25.91;64.93;100147.30;2799328;84;21361;-65
2021/07/03 09:47:32;;;;;;;12.98;9.30;;;;;;;26.10;62.96;100135.28;2799571;85;20995;-67
2021/07/03 09:51:48;;;;;;;12.80;8.43;;;;;;;25.89;61.90;100134.45;2798115;84;21059;-63
2021/07/03 09:55:51;;;;;;;12.25;8.65;;;;;;;25.58;62.49;100135.80;2700133;86;21003;-60
2021/07/03 09:59:56;;;;;;;10.13;7.17;;;;;;;25.52;63.60;100136.19;2727419;85;20994;-62
2021/07/03 10:04:01;;;;;;;9.58;8.40;;;;;;;25.92;62.62;100123.08;2702106;85;20999;-62
2021/07/03 10:08:19;;;;;;;12.03;7.05;;;;;;;25.86;61.13;100130.83;2727308;87;21014;-60
2021/07/03 10:12:29;;;;;;;10.08;6.50;;;;;;;25.72;60.83;100123.38;2726825;86;21050;-60
2021/07/03 10:16:33;;;;;;;7.90;6.15;;;;;;;25.98;61.97;100115.36;2728075;86;21070;-61
2021/07/03 10:20:39;;;;;;;7.37;6.37;;;;;;;26.31;59.07;100114.02;2738135;86;21043;-60
2021/07/03 10:24:48;;;;;;;10.75;7.25;;;;;;;26.40;59.03;100115.06;2741601;86;21030;-60
2021/07/03 10:28:51;;;;;;;15.93;7.00;;;;;;;26.13;59.97;100111.34;2746164;86;21034;-60
2021/07/03 10:33:02;;;;;;;8.20;7.10;;;;;;;25.88;59.59;100115.92;2742877;86;21007;-60
2021/07/03 10:37:05;;;;;;;7.40;6.25;;;;;;;26.03;59.79;100112.77;2736635;86;21015;-60
2021/07/03 10:41:15;;;;;;;10.08;7.10;;;;;;;26.21;59.14;100111.06;2726493;86;21038;-61
2021/07/03 10:45:23;;;;;;;9.83;6.50;;;;;;;26.12;58.55;100110.53;2741194;86;21058;-61
2021/07/03 10:49:37;;;;;;;11.80;6.33;;;;;;;25.98;58.13;100104.98;2714999;87;21029;-61
2021/07/03 10:53:40;;;;;;;8.13;6.33;;;;;;;25.88;58.11;100109.11;2701239;87;21484;-61
2021/07/03 10:57:45;;;;;;;6.92;6.22;;;;;;;25.86;57.28;100098.14;2792814;85;21023;-61
2021/07/03 11:01:48;;;;;;;;;;;;;;;26.10;59.10;100094.41;2803092;85;21032;-64
2021/07/03 11:05:51;;;;;;;8.35;6.40;;;;;;;26.37;59.73;100088.56;2800593;84;20131;-62
2021/07/03 11:10:07;;;;;;;6.78;6.12;;;;;;;26.49;58.90;100090.45;2801144;85;20999;-61
2021/07/03 11:14:19;;;;;;;7.78;6.35;;;;;;;26.42;57.80;100089.75;2796775;85;21115;-61
2021/07/03 11:18:36;;;;;;;8.38;5.97;;;;;;;26.50;58.39;100086.66;2801058;84;21082;-62
2021/07/03 11:22:43;;;;;;;7.80;5.53;;;;;;;26.46;57.78;100080.02;2799555;83;21063;-62
2021/07/03 11:26:46;;;;;;;9.93;6.42;;;;;;;26.27;58.84;100080.13;2801387;84;21079;-61
2021/07/03 11:31:01;;;;;;;125.30;22.32;;;;;;;26.07;59.77;100073.63;2797682;84;21005;-63
2021/07/03 11:35:07;;;;;;;26.27;9.05;;;;;;;26.08;61.29;100069.28;2795934;85;21035;-62
2021/07/03 11:39:11;;;;;;;9.55;6.53;;;;;;;26.04;59.81;100065.38;2798600;85;21026;-63
2021/07/03 11:43:14;;;;;;;8.60;7.17;;;;;;;25.94;59.51;100074.64;2799674;85;21098;-62
2021/07/03 11:47:19;;;;;;;7.90;6.07;;;;;;;25.80;58.36;100067.20;2796242;85;20994;-62
2021/07/03 11:51:22;;;;;;;7.05;5.78;;;;;;;25.91;58.43;100071.02;2799530;84;21043;-62
2021/07/03 11:55:32;;;;;;;7.55;5.87;;;;;;;26.07;56.51;100062.17;2789119;85;21032;-63
2021/07/03 11:59:41;;;;;;;6.95;5.42;;;;;;;26.13;55.60;100059.56;2725761;87;21001;-62
2021/07/03 12:03:47;;;;;;;15.18;6.92;;;;;;;26.30;54.83;100052.39;2760742;86;21070;-62
2021/07/03 12:08:08;;;;;;;14.50;5.97;;;;;;;26.49;54.75;100038.64;2762631;84;21249;-62
2021/07/03 12:12:11;;;;;;;8.33;6.78;;;;;;;26.74;55.94;100039.75;2761084;85;21008;-61
2021/07/03 12:16:17;;;;;;;8.53;6.42;;;;;;;27.02;54.76;100030.53;2763732;85;21047;-62
2021/07/03 12:20:24;;;;;;;11.22;7.42;;;;;;;27.20;54.59;100026.26;2761366;85;21071;-62
2021/07/03 12:24:28;;;;;;;8.35;5.65;;;;;;;27.31;53.49;100020.98;2704445;87;20988;-61
2021/07/03 12:28:32;;;;;;;9.70;6.67;;;;;;;27.47;52.38;100020.75;2704033;86;21044;-61
2021/07/03 12:32:36;;;;;;;69.07;14.03;;;;;;;27.61;53.52;100019.93;2763237;85;21039;-62
2021/07/03 12:36:43;;;;;;;6.55;4.67;;;;;;;27.75;50.42;100014.45;2704120;87;21060;-62
2021/07/03 12:41:00;;;;;;;7.05;5.60;;;;;;;27.86;49.07;100011.88;2763239;86;20996;-63
2021/07/03 12:45:05;;;;;;;7.80;5.33;;;;;;;27.93;50.93;100010.64;2762981;86;21046;-63
2021/07/03 12:49:09;;;;;;;5.22;4.22;;;;;;;28.02;49.38;100016.52;2764172;86;21035;-62
2021/07/03 12:53:15;;;;;;;4.25;3.67;;;;;;;28.04;47.55;100004.80;2764644;86;20972;-62
2021/07/03 12:57:25;;;;;;;6.70;4.45;;;;;;;27.96;47.88;100004.38;2763032;85;30501;-62
2021/07/03 13:01:37;;;;;;;10.63;6.00;;;;;;;28.13;50.46;99996.19;2762372;86;21028;-62
2021/07/03 13:05:40;;;;;;;6.55;5.35;;;;;;;28.24;50.46;99992.55;2762100;86;21059;-62
2021/07/03 13:09:54;;;;;;;7.12;6.42;;;;;;;28.22;49.67;100001.54;2762203;86;20991;-63
2021/07/03 13:13:58;;;;;;;7.87;5.83;;;;;;;27.89;50.51;100010.84;2760783;86;21082;-64
2021/07/03 13:18:06;;;;;;;6.33;4.83;;;;;;;27.40;51.00;99999.05;2711081;87;21549;-65
2021/07/03 13:22:09;;;;;;;16.17;6.08;;;;;;;27.35;51.28;99997.59;2763240;85;21034;-65
2021/07/03 13:26:13;;;;;;;5.58;4.92;;;;;;;27.32;50.98;99987.98;2763789;86;21018;-64
2021/07/03 13:30:21;;;;;;;7.53;5.20;;;;;;;27.37;51.29;99987.25;2763882;86;21070;-64
2021/07/03 13:34:24;;;;;;;5.80;5.12;;;;;;;27.40;51.20;99989.48;2764246;86;21054;-64
2021/07/03 13:38:47;;;;;;;5.28;4.53;;;;;;;27.25;49.35;99996.88;2763633;86;21043;-64
2021/07/03 13:42:50;;;;;;;8.28;5.58;;;;;;;27.11;49.85;99980.48;2763962;86;21032;-64
2021/07/03 13:46:53;;;;;;;8.45;6.12;;;;;;;26.90;51.18;99986.91;2764036;86;21043;-64
2021/07/03 13:51:12;;;;;;;10.38;6.45;;;;;;;26.72;51.21;99978.30;2763740;86;21007;-65
2021/07/03 13:55:15;;;;;;;8.85;5.15;;;;;;;26.56;51.81;99971.70;2764187;84;20991;-64
2021/07/03 13:59:19;;;;;;;7.20;5.65;;;;;;;26.43;51.58;99974.97;2768268;86;21082;-64
2021/07/03 14:03:23;;;;;;;8.00;5.50;;;;;;;26.30;51.55;99973.88;2768526;86;21006;-65
2021/07/03 14:07:37;;;;;;;4.97;4.45;;;;;;;26.18;52.05;99965.71;2768476;86;21003;-64
2021/07/03 14:11:40;;;;;;;6.45;5.30;;;;;;;26.08;53.18;99964.36;2768314;86;21003;-65
2021/07/03 14:15:44;;;;;;;9.58;7.33;;;;;;;26.19;53.72;99968.73;2767625;86;21070;-65
2021/07/03 14:19:58;;;;;;;8.43;5.50;;;;;;;26.32;55.96;99965.73;2768214;86;21011;-64
2021/07/03 14:24:01;;;;;;;9.40;5.50;;;;;;;26.63;53.94;99957.42;2768163;86;21023;-64
2021/07/03 14:28:05;;;;;;;6.50;5.90;;;;;;;26.61;52.47;99959.02;2768254;85;21007;-64
2021/07/03 14:32:08;;;;;;;5.60;4.95;;;;;;;26.53;53.29;99960.77;2768159;86;20999;-63
2021/07/03 14:36:11;;;;;;;7.12;5.75;;;;;;;26.81;52.55;99953.68;2767940;86;21075;-64
2021/07/03 14:40:16;;;;;;;6.37;5.72;;;;;;;27.28;50.94;99935.47;2768079;86;20952;-64
2021/07/03 14:44:19;;;;;;;5.83;5.22;;;;;;;27.53;51.17;99950.70;2767924;86;20980;-64
2021/07/03 14:48:23;;;;;;;4.50;4.10;;;;;;;27.77;51.13;99945.36;2768405;86;21035;-63
2021/07/03 14:52:26;;;;;;;108.32;21.97;;;;;;;27.88;49.99;99945.50;2768387;86;21014;-64
2021/07/03 14:56:28;;;;;;;7.67;5.22;;;;;;;27.82;50.33;99934.20;2766631;84;21007;-64
2021/07/03 15:01:08;;;;;;;5.67;5.10;;;;;;;27.69;52.40;99948.48;2764147;86;21030;-64
2021/07/03 15:05:14;;;;;;;8.80;5.62;;;;;;;27.67;53.36;99949.83;2764048;86;21023;-64
2021/07/03 15:09:36;;;;;;;8.48;5.72;;;;;;;27.48;52.79;99950.84;2764252;86;20991;-64
2021/07/03 15:13:39;;;;;;;11.68;5.03;;;;;;;27.27;53.27;99939.27;2764026;86;21023;-64
2021/07/03 15:17:41;;;;;;;5.97;5.22;;;;;;;26.98;52.75;99939.30;2764019;86;21046;-64
2021/07/03 15:21:45;;;;;;;8.53;4.97;;;;;;;26.74;53.91;99940.73;2763897;85;21098;-64
2021/07/03 15:25:48;;;;;;;7.65;5.28;;;;;;;26.63;54.22;99936.41;2763939;86;20992;-64
2021/07/03 15:29:59;;;;;;;6.10;5.50;;;;;;;26.71;54.56;99934.37;2764187;86;21046;-64
2021/07/03 15:34:02;;;;;;;6.83;5.37;;;;;;;26.99;54.16;99939.05;2764045;86;21078;-64
2021/07/03 15:38:06;;;;;;;6.55;5.22;;;;;;;27.16;54.32;99929.55;2764258;86;21038;-64
2021/07/03 15:42:09;;;;;;;5.25;4.75;;;;;;;27.09;53.52;99925.60;2763982;86;21051;-64
2021/07/03 15:46:13;;;;;;;7.00;5.00;;;;;;;27.00;53.98;99924.33;2763838;86;21174;-64
2021/07/03 15:50:20;;;;;;;4.78;4.25;;;;;;;26.94;55.31;99926.16;2764001;86;21048;-64
2021/07/03 15:54:23;;;;;;;6.92;5.20;;;;;;;26.87;54.87;99925.45;2764208;86;21067;-64
2021/07/03 15:58:33;;;;;;;5.15;4.40;;;;;;;26.71;53.48;99926.18;2789703;84;21016;-64
2021/07/03 16:02:36;;;;;;;4.90;4.30;;;;;;;26.61;54.33;99928.17;2797016;84;21095;-64
2021/07/03 16:06:39;;;;;;;6.60;4.62;;;;;;;26.60;53.99;99925.99;2796794;85;21031;-64
2021/07/03 16:10:42;;;;;;;6.30;5.67;;;;;;;26.46;54.33;99925.96;2796469;85;21564;-64
2021/07/03 16:14:45;;;;;;;6.87;4.62;;;;;;;26.51;54.88;99920.08;2797296;85;20988;-64
2021/07/03 16:18:50;;;;;;;5.37;4.87;;;;;;;26.64;53.03;99915.44;2797452;85;21015;-63
2021/07/03 16:22:52;;;;;;;;;;;;;;;26.76;52.35;99912.67;2799616;83;21072;-64
2021/07/03 16:26:55;;;;;;;5.28;4.50;;;;;;;26.89;52.19;99912.39;2797107;85;20068;-64
2021/07/03 16:31:03;;;;;;;5.50;4.17;;;;;;;26.82;52.46;99910.32;2797203;85;21015;-64
2021/07/03 16:35:07;;;;;;;4.67;4.05;;;;;;;26.54;52.81;99914.70;2797121;85;20983;-64
2021/07/03 16:39:12;;;;;;;5.22;4.42;;;;;;;26.26;53.62;99927.17;2797275;85;21051;-64
2021/07/03 16:43:17;;;;;;;5.20;4.37;;;;;;;26.01;54.96;99930.96;2797345;85;21043;-64
2021/07/03 16:47:20;;;;;;;8.75;4.17;;;;;;;25.79;56.07;99927.47;2797419;85;21090;-64
2021/07/03 16:51:23;;;;;;;6.37;4.53;;;;;;;25.62;56.82;99928.67;2796838;85;21056;-64
2021/07/03 16:55:25;;;;;;;5.50;4.65;;;;;;;25.45;57.70;99930.38;2794502;85;21046;-64
2021/07/03 16:59:28;;;;;;;5.85;4.75;;;;;;;25.34;58.34;99927.93;2805519;85;20977;-64
2021/07/03 17:03:31;;;;;;;5.47;4.55;;;;;;;25.30;59.47;99928.11;2806711;85;21036;-64
2021/07/03 17:07:35;;;;;;;8.75;6.12;;;;;;;25.32;60.22;99939.59;2806605;85;21032;-64
2021/07/03 17:11:39;;;;;;;5.72;5.20;;;;;;;25.38;61.33;99931.87;2806707;84;21028;-64
2021/07/03 17:15:42;;;;;;;5.85;5.12;;;;;;;25.42;62.09;99943.95;2806728;85;21029;-64
2021/07/03 17:19:56;;;;;;;6.35;5.05;;;;;;;25.30;61.88;99941.72;2806673;85;21025;-64
2021/07/03 17:23:59;;;;;;;7.12;4.87;;;;;;;25.26;62.54;99938.65;2806618;85;21056;-63
2021/07/03 17:28:01;;;;;;;7.08;4.75;;;;;;;25.19;61.62;99929.22;2806556;84;21032;-64
2021/07/03 17:32:05;;;;;;;6.20;5.58;;;;;;;25.07;60.70;99931.05;2806683;85;21005;-63
2021/07/03 17:36:08;;;;;;;5.35;4.37;;;;;;;24.99;60.89;99932.75;2806476;85;21036;-64
2021/07/03 17:40:22;;;;;;;7.40;5.30;;;;;;;25.00;62.08;99926.25;2806651;85;20993;-63
2021/07/03 17:44:25;;;;;;;4.92;4.40;;;;;;;25.06;62.38;99932.12;2806656;85;21052;-64
2021/07/03 17:48:34;;;;;;;6.10;4.97;;;;;;;25.01;62.36;99934.70;2806424;85;20969;-63
2021/07/03 17:52:37;;;;;;;8.73;6.35;;;;;;;25.04;63.28;99933.69;2806552;85;21049;-63
2021/07/03 17:56:41;;;;;;;5.97;5.05;;;;;;;25.00;63.34;99928.97;2804167;85;21045;-64
2021/07/03 18:00:48;;;;;;;7.85;5.80;;;;;;;24.84;62.66;99933.98;2798349;85;21017;-64
2021/07/03 18:04:51;;;;;;;6.42;5.12;;;;;;;24.68;63.03;99934.87;2798368;85;21053;-64
2021/07/03 18:09:24;;;;;;;6.87;4.72;;;;;;;24.62;63.33;99938.50;2798119;85;21049;-64
2021/07/03 18:13:27;;;;;;;6.08;4.33;;;;;;;24.64;63.29;99941.83;2798089;85;21025;-64
2021/07/03 18:17:35;;;;;;;6.20;4.90;;;;;;;24.65;63.48;99946.72;2798226;85;21017;-64
2021/07/03 18:21:40;;;;;;;6.70;5.08;;;;;;;24.55;63.53;99948.61;2797860;83;21590;-64
2021/07/03 18:25:43;;;;;;;6.07;5.23;;;;;;;24.43;63.46;99955.87;2798347;85;21029;-64
2021/07/03 18:29:46;;;;;;;5.55;5.00;;;;;;;24.37;64.03;99961.17;2798184;85;21029;-64
2021/07/03 18:33:49;;;;;;;9.50;6.62;;;;;;;24.36;64.43;99959.47;2798113;85;21033;-64
2021/07/03 18:37:55;;;;;;;6.97;6.05;;;;;;;24.22;64.96;99949.83;2797940;85;21064;-64
2021/07/03 18:42:00;;;;;;;12.23;9.13;;;;;;;24.08;64.53;99958.09;2797997;85;20962;-64
2021/07/03 18:46:04;;;;;;;8.68;6.72;;;;;;;24.02;64.06;99954.08;2798131;85;21426;-64
2021/07/03 18:50:10;;;;;;;10.23;7.62;;;;;;;23.98;63.78;99950.97;2798301;85;21049;-64